sensor_id;sensor_type;location;lat;lon;timestamp;P1;durP1;ratioP1;P2;durP2;ratioP2
22015;SDS011;64992;51.698;-0.292;2024-02-16T00:01:40;42.00;;;38.28;;
22015;SDS011;64992;51.698;-0.292;2024-02-16T00:04:06;40.17;;;37.28;;
22015;SDS011;64992;51.698;-0.292;2024-02-16T00:06:32;41.08;;;37.95;;
22015;SDS011;64992;51.698;-0.292;2024-02-16T00:08:59;40.03;;;37.05;;
22015;SDS011;64992;51.698;-0.292;2024-02-16T00:11:25;38.35;;;35.60;;
22015;SDS011;64992;51.698;-0.292;2024-02-16T00:13:53;40.63;;;37.15;;
22015;SDS011;64992;51.698;-0.292;2024-02-16T00:16:19;43.08;;;39.25;;
22015;SDS011;64992;51.698;-0.292;2024-02-16T00:18:45;40.80;;;37.05;;
22015;SDS011;64992;51.698;-0.292;2024-02-16T00:21:11;41.22;;;37.50;;
22015;SDS011;64992;51.698;-0.292;2024-02-16T00:23:37;39.75;;;36.80;;
22015;SDS011;64992;51.698;-0.292;2024-02-16T00:26:03;40.65;;;37.90;;
22015;SDS011;64992;51.698;-0.292;2024-02-16T00:28:32;41.38;;;38.38;;
22015;SDS011;64992;51.698;-0.292;2024-02-16T00:30:58;39.70;;;36.30;;
22015;SDS011;64992;51.698;-0.292;2024-02-16T00:33:24;38.63;;;34.65;;
22015;SDS011;64992;51.698;-0.292;2024-02-16T00:35:50;36.75;;;33.85;;
22015;SDS011;64992;51.698;-0.292;2024-02-16T00:38:18;39.05;;;35.38;;
22015;SDS011;64992;51.698;-0.292;2024-02-16T00:40:44;41.08;;;37.53;;
22015;SDS011;64992;51.698;-0.292;2024-02-16T00:43:10;39.97;;;36.90;;
22015;SDS011;64992;51.698;-0.292;2024-02-16T00:45:36;39.22;;;35.65;;
22015;SDS011;64992;51.698;-0.292;2024-02-16T00:48:02;41.58;;;38.47;;
22015;SDS011;64992;51.698;-0.292;2024-02-16T00:50:28;40.75;;;37.75;;
22015;SDS011;64992;51.698;-0.292;2024-02-16T00:52:54;40.05;;;36.45;;
22015;SDS011;64992;51.698;-0.292;2024-02-16T00:55:20;39.97;;;37.00;;
22015;SDS011;64992;51.698;-0.292;2024-02-16T00:57:46;40.47;;;37.17;;
22015;SDS011;64992;51.698;-0.292;2024-02-16T01:00:13;42.15;;;39.15;;
22015;SDS011;64992;51.698;-0.292;2024-02-16T01:02:40;41.58;;;37.42;;
22015;SDS011;64992;51.698;-0.292;2024-02-16T01:05:06;42.30;;;38.53;;
22015;SDS011;64992;51.698;-0.292;2024-02-16T01:07:35;42.42;;;39.08;;
22015;SDS011;64992;51.698;-0.292;2024-02-16T01:10:01;40.67;;;37.13;;
22015;SDS011;64992;51.698;-0.292;2024-02-16T01:12:28;41.60;;;37.95;;
22015;SDS011;64992;51.698;-0.292;2024-02-16T01:14:57;42.25;;;38.83;;
22015;SDS011;64992;51.698;-0.292;2024-02-16T01:17:24;44.20;;;40.95;;
22015;SDS011;64992;51.698;-0.292;2024-02-16T01:19:50;42.97;;;39.53;;
22015;SDS011;64992;51.698;-0.292;2024-02-16T01:22:16;44.13;;;39.65;;
22015;SDS011;64992;51.698;-0.292;2024-02-16T01:24:43;46.20;;;41.50;;
22015;SDS011;64992;51.698;-0.292;2024-02-16T01:27:09;44.72;;;40.03;;
22015;SDS011;64992;51.698;-0.292;2024-02-16T01:29:36;47.35;;;43.22;;
22015;SDS011;64992;51.698;-0.292;2024-02-16T01:32:02;46.88;;;42.17;;
22015;SDS011;64992;51.698;-0.292;2024-02-16T01:34:28;48.15;;;43.97;;
22015;SDS011;64992;51.698;-0.292;2024-02-16T01:36:55;49.90;;;45.25;;
22015;SDS011;64992;51.698;-0.292;2024-02-16T01:39:21;49.45;;;45.03;;
22015;SDS011;64992;51.698;-0.292;2024-02-16T01:41:47;56.88;;;51.40;;
22015;SDS011;64992;51.698;-0.292;2024-02-16T01:44:13;58.42;;;53.13;;
22015;SDS011;64992;51.698;-0.292;2024-02-16T01:46:41;57.95;;;52.45;;
22015;SDS011;64992;51.698;-0.292;2024-02-16T01:49:07;58.10;;;52.90;;
22015;SDS011;64992;51.698;-0.292;2024-02-16T01:51:34;58.03;;;52.92;;
22015;SDS011;64992;51.698;-0.292;2024-02-16T01:54:01;58.42;;;52.95;;
22015;SDS011;64992;51.698;-0.292;2024-02-16T01:56:27;57.60;;;51.92;;
22015;SDS011;64992;51.698;-0.292;2024-02-16T01:58:53;58.53;;;53.40;;
22015;SDS011;64992;51.698;-0.292;2024-02-16T02:01:20;61.47;;;55.33;;
22015;SDS011;64992;51.698;-0.292;2024-02-16T02:03:46;59.10;;;53.38;;
22015;SDS011;64992;51.698;-0.292;2024-02-16T02:06:12;58.83;;;52.70;;
22015;SDS011;64992;51.698;-0.292;2024-02-16T02:08:38;56.15;;;51.10;;
22015;SDS011;64992;51.698;-0.292;2024-02-16T02:11:04;51.88;;;47.67;;
22015;SDS011;64992;51.698;-0.292;2024-02-16T02:13:30;49.38;;;45.50;;
22015;SDS011;64992;51.698;-0.292;2024-02-16T02:15:57;53.72;;;49.28;;
22015;SDS011;64992;51.698;-0.292;2024-02-16T02:18:24;46.72;;;42.97;;
22015;SDS011;64992;51.698;-0.292;2024-02-16T02:20:50;47.80;;;43.83;;
22015;SDS011;64992;51.698;-0.292;2024-02-16T02:23:18;51.38;;;47.55;;
22015;SDS011;64992;51.698;-0.292;2024-02-16T02:25:44;48.67;;;45.08;;
22015;SDS011;64992;51.698;-0.292;2024-02-16T02:28:10;45.92;;;42.50;;
22015;SDS011;64992;51.698;-0.292;2024-02-16T02:30:36;48.50;;;45.35;;
22015;SDS011;64992;51.698;-0.292;2024-02-16T02:33:03;41.97;;;39.42;;
22015;SDS011;64992;51.698;-0.292;2024-02-16T02:35:29;38.40;;;35.40;;
22015;SDS011;64992;51.698;-0.292;2024-02-16T02:37:55;39.40;;;37.20;;
22015;SDS011;64992;51.698;-0.292;2024-02-16T02:40:21;38.38;;;36.13;;
22015;SDS011;64992;51.698;-0.292;2024-02-16T02:42:47;31.33;;;29.35;;
22015;SDS011;64992;51.698;-0.292;2024-02-16T02:45:13;31.45;;;29.75;;
22015;SDS011;64992;51.698;-0.292;2024-02-16T02:47:39;32.10;;;30.40;;
22015;SDS011;64992;51.698;-0.292;2024-02-16T02:50:05;31.77;;;29.98;;
22015;SDS011;64992;51.698;-0.292;2024-02-16T02:52:32;31.70;;;29.80;;
22015;SDS011;64992;51.698;-0.292;2024-02-16T02:54:58;64.53;;;61.00;;
22015;SDS011;64992;51.698;-0.292;2024-02-16T02:57:24;33.42;;;31.42;;
22015;SDS011;64992;51.698;-0.292;2024-02-16T02:59:50;31.83;;;30.08;;
22015;SDS011;64992;51.698;-0.292;2024-02-16T03:02:16;49.63;;;46.95;;
22015;SDS011;64992;51.698;-0.292;2024-02-16T03:04:42;34.65;;;32.72;;
22015;SDS011;64992;51.698;-0.292;2024-02-16T03:07:08;35.00;;;32.95;;
22015;SDS011;64992;51.698;-0.292;2024-02-16T03:09:34;37.40;;;35.25;;
22015;SDS011;64992;51.698;-0.292;2024-02-16T03:12:00;39.83;;;37.58;;
22015;SDS011;64992;51.698;-0.292;2024-02-16T03:14:27;42.75;;;40.28;;
22015;SDS011;64992;51.698;-0.292;2024-02-16T03:16:53;42.22;;;39.75;;
22015;SDS011;64992;51.698;-0.292;2024-02-16T03:19:19;54.17;;;50.88;;
22015;SDS011;64992;51.698;-0.292;2024-02-16T03:21:46;52.55;;;49.55;;
22015;SDS011;64992;51.698;-0.292;2024-02-16T03:24:12;55.05;;;52.00;;
22015;SDS011;64992;51.698;-0.292;2024-02-16T03:26:38;55.47;;;52.20;;
22015;SDS011;64992;51.698;-0.292;2024-02-16T03:29:04;59.67;;;56.30;;
22015;SDS011;64992;51.698;-0.292;2024-02-16T03:31:30;64.65;;;61.00;;
22015;SDS011;64992;51.698;-0.292;2024-02-16T03:33:58;68.50;;;64.82;;
22015;SDS011;64992;51.698;-0.292;2024-02-16T03:36:24;65.65;;;62.10;;
22015;SDS011;64992;51.698;-0.292;2024-02-16T03:38:50;65.57;;;61.75;;
22015;SDS011;64992;51.698;-0.292;2024-02-16T03:41:21;70.60;;;66.63;;
22015;SDS011;64992;51.698;-0.292;2024-02-16T03:43:48;70.65;;;66.15;;
22015;SDS011;64992;51.698;-0.292;2024-02-16T03:46:14;65.53;;;61.53;;
22015;SDS011;64992;51.698;-0.292;2024-02-16T03:48:40;61.70;;;58.40;;
22015;SDS011;64992;51.698;-0.292;2024-02-16T03:51:06;66.38;;;62.65;;
22015;SDS011;64992;51.698;-0.292;2024-02-16T03:53:32;66.10;;;62.10;;
22015;SDS011;64992;51.698;-0.292;2024-02-16T03:55:59;71.32;;;67.35;;
22015;SDS011;64992;51.698;-0.292;2024-02-16T03:58:25;65.78;;;61.75;;
22015;SDS011;64992;51.698;-0.292;2024-02-16T04:00:51;70.13;;;66.20;;
22015;SDS011;64992;51.698;-0.292;2024-02-16T04:03:20;72.95;;;68.72;;
22015;SDS011;64992;51.698;-0.292;2024-02-16T04:05:46;79.07;;;74.22;;
22015;SDS011;64992;51.698;-0.292;2024-02-16T04:08:13;82.70;;;78.00;;
22015;SDS011;64992;51.698;-0.292;2024-02-16T04:10:39;83.72;;;78.70;;
22015;SDS011;64992;51.698;-0.292;2024-02-16T04:13:05;77.97;;;73.55;;
22015;SDS011;64992;51.698;-0.292;2024-02-16T04:15:31;82.28;;;77.50;;
22015;SDS011;64992;51.698;-0.292;2024-02-16T04:17:57;83.65;;;78.60;;
22015;SDS011;64992;51.698;-0.292;2024-02-16T04:20:23;82.25;;;76.85;;
22015;SDS011;64992;51.698;-0.292;2024-02-16T04:22:49;72.80;;;68.40;;
22015;SDS011;64992;51.698;-0.292;2024-02-16T04:25:15;75.70;;;70.88;;
22015;SDS011;64992;51.698;-0.292;2024-02-16T04:27:41;71.72;;;67.32;;
22015;SDS011;64992;51.698;-0.292;2024-02-16T04:30:07;59.58;;;55.72;;
22015;SDS011;64992;51.698;-0.292;2024-02-16T04:32:33;73.45;;;68.53;;
22015;SDS011;64992;51.698;-0.292;2024-02-16T04:34:59;78.10;;;73.57;;
22015;SDS011;64992;51.698;-0.292;2024-02-16T04:37:25;76.95;;;72.45;;
22015;SDS011;64992;51.698;-0.292;2024-02-16T04:39:51;77.38;;;73.13;;
22015;SDS011;64992;51.698;-0.292;2024-02-16T04:42:18;76.32;;;71.88;;
22015;SDS011;64992;51.698;-0.292;2024-02-16T04:44:44;71.63;;;67.15;;
22015;SDS011;64992;51.698;-0.292;2024-02-16T04:47:10;70.20;;;66.10;;
22015;SDS011;64992;51.698;-0.292;2024-02-16T04:49:36;60.72;;;56.92;;
22015;SDS011;64992;51.698;-0.292;2024-02-16T04:52:02;73.70;;;69.35;;
22015;SDS011;64992;51.698;-0.292;2024-02-16T04:54:28;66.18;;;62.08;;
22015;SDS011;64992;51.698;-0.292;2024-02-16T04:56:54;65.85;;;61.75;;
22015;SDS011;64992;51.698;-0.292;2024-02-16T04:59:20;72.32;;;67.63;;
22015;SDS011;64992;51.698;-0.292;2024-02-16T05:01:46;77.57;;;72.35;;
22015;SDS011;64992;51.698;-0.292;2024-02-16T05:04:13;75.85;;;71.18;;
22015;SDS011;64992;51.698;-0.292;2024-02-16T05:06:42;76.28;;;71.43;;
22015;SDS011;64992;51.698;-0.292;2024-02-16T05:09:08;74.68;;;69.60;;
22015;SDS011;64992;51.698;-0.292;2024-02-16T05:11:34;76.85;;;72.18;;
22015;SDS011;64992;51.698;-0.292;2024-02-16T05:14:00;59.10;;;55.33;;
22015;SDS011;64992;51.698;-0.292;2024-02-16T05:16:27;70.97;;;66.78;;
22015;SDS011;64992;51.698;-0.292;2024-02-16T05:18:54;59.28;;;55.78;;
22015;SDS011;64992;51.698;-0.292;2024-02-16T05:21:23;54.85;;;51.38;;
22015;SDS011;64992;51.698;-0.292;2024-02-16T05:23:49;48.15;;;45.20;;
22015;SDS011;64992;51.698;-0.292;2024-02-16T05:26:15;61.38;;;57.63;;
22015;SDS011;64992;51.698;-0.292;2024-02-16T05:28:41;52.22;;;49.08;;
22015;SDS011;64992;51.698;-0.292;2024-02-16T05:31:14;56.90;;;53.40;;
22015;SDS011;64992;51.698;-0.292;2024-02-16T05:33:42;52.90;;;49.55;;
22015;SDS011;64992;51.698;-0.292;2024-02-16T05:36:08;53.97;;;51.03;;
22015;SDS011;64992;51.698;-0.292;2024-02-16T05:38:34;57.60;;;54.28;;
22015;SDS011;64992;51.698;-0.292;2024-02-16T05:41:05;61.53;;;57.58;;
22015;SDS011;64992;51.698;-0.292;2024-02-16T05:43:31;60.35;;;57.05;;
22015;SDS011;64992;51.698;-0.292;2024-02-16T05:45:58;61.08;;;57.70;;
22015;SDS011;64992;51.698;-0.292;2024-02-16T05:48:24;58.65;;;55.53;;
22015;SDS011;64992;51.698;-0.292;2024-02-16T05:50:56;59.35;;;56.25;;
22015;SDS011;64992;51.698;-0.292;2024-02-16T05:53:25;55.72;;;52.58;;
22015;SDS011;64992;51.698;-0.292;2024-02-16T05:55:51;52.35;;;49.15;;
22015;SDS011;64992;51.698;-0.292;2024-02-16T05:58:17;50.85;;;47.67;;
22015;SDS011;64992;51.698;-0.292;2024-02-16T06:00:43;52.10;;;49.03;;
22015;SDS011;64992;51.698;-0.292;2024-02-16T06:03:09;49.88;;;46.58;;
22015;SDS011;64992;51.698;-0.292;2024-02-16T06:05:35;48.72;;;46.17;;
22015;SDS011;64992;51.698;-0.292;2024-02-16T06:08:01;48.42;;;45.67;;
22015;SDS011;64992;51.698;-0.292;2024-02-16T06:10:27;48.85;;;45.97;;
22015;SDS011;64992;51.698;-0.292;2024-02-16T06:12:53;51.03;;;47.92;;
22015;SDS011;64992;51.698;-0.292;2024-02-16T06:15:19;56.38;;;53.55;;
22015;SDS011;64992;51.698;-0.292;2024-02-16T06:17:45;48.10;;;45.17;;
22015;SDS011;64992;51.698;-0.292;2024-02-16T06:20:12;46.60;;;44.15;;
22015;SDS011;64992;51.698;-0.292;2024-02-16T06:22:39;45.50;;;43.03;;
22015;SDS011;64992;51.698;-0.292;2024-02-16T06:25:05;50.70;;;48.10;;
22015;SDS011;64992;51.698;-0.292;2024-02-16T06:27:31;50.08;;;47.50;;
22015;SDS011;64992;51.698;-0.292;2024-02-16T06:29:57;50.85;;;48.35;;
22015;SDS011;64992;51.698;-0.292;2024-02-16T06:32:23;46.25;;;43.58;;
22015;SDS011;64992;51.698;-0.292;2024-02-16T06:34:49;45.15;;;42.88;;
22015;SDS011;64992;51.698;-0.292;2024-02-16T06:37:15;46.80;;;44.17;;
22015;SDS011;64992;51.698;-0.292;2024-02-16T06:39:41;45.58;;;42.58;;
22015;SDS011;64992;51.698;-0.292;2024-02-16T06:42:08;40.53;;;38.53;;
22015;SDS011;64992;51.698;-0.292;2024-02-16T06:44:37;47.58;;;45.00;;
22015;SDS011;64992;51.698;-0.292;2024-02-16T06:47:03;50.63;;;47.97;;
22015;SDS011;64992;51.698;-0.292;2024-02-16T06:49:29;50.55;;;47.85;;
22015;SDS011;64992;51.698;-0.292;2024-02-16T06:51:55;47.72;;;44.90;;
22015;SDS011;64992;51.698;-0.292;2024-02-16T06:54:21;47.50;;;45.10;;
22015;SDS011;64992;51.698;-0.292;2024-02-16T06:56:47;48.08;;;45.45;;
22015;SDS011;64992;51.698;-0.292;2024-02-16T06:59:13;44.25;;;42.03;;
22015;SDS011;64992;51.698;-0.292;2024-02-16T07:01:39;44.50;;;42.20;;
22015;SDS011;64992;51.698;-0.292;2024-02-16T07:04:05;44.70;;;42.00;;
22015;SDS011;64992;51.698;-0.292;2024-02-16T07:06:32;39.78;;;37.13;;
22015;SDS011;64992;51.698;-0.292;2024-02-16T07:08:58;45.55;;;43.20;;
22015;SDS011;64992;51.698;-0.292;2024-02-16T07:11:24;40.10;;;37.38;;
22015;SDS011;64992;51.698;-0.292;2024-02-16T07:13:50;48.55;;;45.38;;
22015;SDS011;64992;51.698;-0.292;2024-02-16T07:16:16;47.13;;;44.33;;
22015;SDS011;64992;51.698;-0.292;2024-02-16T07:18:43;43.25;;;40.53;;
22015;SDS011;64992;51.698;-0.292;2024-02-16T07:21:09;49.20;;;46.25;;
22015;SDS011;64992;51.698;-0.292;2024-02-16T07:23:36;46.50;;;43.83;;
22015;SDS011;64992;51.698;-0.292;2024-02-16T07:26:02;52.58;;;48.67;;
22015;SDS011;64992;51.698;-0.292;2024-02-16T07:28:28;56.40;;;52.80;;
22015;SDS011;64992;51.698;-0.292;2024-02-16T07:30:54;55.25;;;51.55;;
22015;SDS011;64992;51.698;-0.292;2024-02-16T07:33:20;50.10;;;46.85;;
22015;SDS011;64992;51.698;-0.292;2024-02-16T07:35:47;46.97;;;43.55;;
22015;SDS011;64992;51.698;-0.292;2024-02-16T07:38:13;53.40;;;48.95;;
22015;SDS011;64992;51.698;-0.292;2024-02-16T07:40:39;52.15;;;48.47;;
22015;SDS011;64992;51.698;-0.292;2024-02-16T07:43:05;54.75;;;50.85;;
22015;SDS011;64992;51.698;-0.292;2024-02-16T07:45:31;56.00;;;52.03;;
22015;SDS011;64992;51.698;-0.292;2024-02-16T07:47:57;57.53;;;52.88;;
22015;SDS011;64992;51.698;-0.292;2024-02-16T07:50:23;54.85;;;50.95;;
22015;SDS011;64992;51.698;-0.292;2024-02-16T07:52:50;55.20;;;50.78;;
22015;SDS011;64992;51.698;-0.292;2024-02-16T07:55:16;48.67;;;44.83;;
22015;SDS011;64992;51.698;-0.292;2024-02-16T07:57:49;48.05;;;43.53;;
22015;SDS011;64992;51.698;-0.292;2024-02-16T08:00:15;50.55;;;46.33;;
22015;SDS011;64992;51.698;-0.292;2024-02-16T08:02:42;46.60;;;43.28;;
22015;SDS011;64992;51.698;-0.292;2024-02-16T08:05:09;51.55;;;46.50;;
22015;SDS011;64992;51.698;-0.292;2024-02-16T08:07:34;46.35;;;42.45;;
22015;SDS011;64992;51.698;-0.292;2024-02-16T08:10:00;46.08;;;41.67;;
22015;SDS011;64992;51.698;-0.292;2024-02-16T08:12:27;45.90;;;42.17;;
22015;SDS011;64992;51.698;-0.292;2024-02-16T08:14:53;41.45;;;37.58;;
22015;SDS011;64992;51.698;-0.292;2024-02-16T08:17:19;42.97;;;39.47;;
22015;SDS011;64992;51.698;-0.292;2024-02-16T08:19:51;41.58;;;37.80;;
22015;SDS011;64992;51.698;-0.292;2024-02-16T08:22:17;40.08;;;36.47;;
22015;SDS011;64992;51.698;-0.292;2024-02-16T08:24:43;42.38;;;35.60;;
22015;SDS011;64992;51.698;-0.292;2024-02-16T08:27:11;40.72;;;35.70;;
22015;SDS011;64992;51.698;-0.292;2024-02-16T08:29:37;41.85;;;37.88;;
22015;SDS011;64992;51.698;-0.292;2024-02-16T08:32:04;38.05;;;34.13;;
22015;SDS011;64992;51.698;-0.292;2024-02-16T08:34:31;40.22;;;36.42;;
22015;SDS011;64992;51.698;-0.292;2024-02-16T08:36:57;40.28;;;36.08;;
22015;SDS011;64992;51.698;-0.292;2024-02-16T08:39:23;40.75;;;36.58;;
22015;SDS011;64992;51.698;-0.292;2024-02-16T08:41:52;41.95;;;37.95;;
22015;SDS011;64992;51.698;-0.292;2024-02-16T08:44:18;39.75;;;35.75;;
22015;SDS011;64992;51.698;-0.292;2024-02-16T08:46:44;42.97;;;38.85;;
22015;SDS011;64992;51.698;-0.292;2024-02-16T08:49:14;41.33;;;36.25;;
22015;SDS011;64992;51.698;-0.292;2024-02-16T08:51:41;41.50;;;36.72;;
22015;SDS011;64992;51.698;-0.292;2024-02-16T08:54:07;42.65;;;37.38;;
22015;SDS011;64992;51.698;-0.292;2024-02-16T08:56:33;40.95;;;36.80;;
22015;SDS011;64992;51.698;-0.292;2024-02-16T08:59:01;40.30;;;35.72;;
22015;SDS011;64992;51.698;-0.292;2024-02-16T09:01:30;43.38;;;39.10;;
22015;SDS011;64992;51.698;-0.292;2024-02-16T09:03:56;41.45;;;37.75;;
22015;SDS011;64992;51.698;-0.292;2024-02-16T09:06:22;41.78;;;37.55;;
22015;SDS011;64992;51.698;-0.292;2024-02-16T09:08:49;38.53;;;35.10;;
22015;SDS011;64992;51.698;-0.292;2024-02-16T09:11:15;39.70;;;35.85;;
22015;SDS011;64992;51.698;-0.292;2024-02-16T09:13:42;39.15;;;35.97;;
22015;SDS011;64992;51.698;-0.292;2024-02-16T09:16:08;40.17;;;36.08;;
22015;SDS011;64992;51.698;-0.292;2024-02-16T09:18:34;41.20;;;36.80;;
22015;SDS011;64992;51.698;-0.292;2024-02-16T09:21:02;43.38;;;36.00;;
22015;SDS011;64992;51.698;-0.292;2024-02-16T09:23:28;39.25;;;36.00;;
22015;SDS011;64992;51.698;-0.292;2024-02-16T09:25:54;35.90;;;32.53;;
22015;SDS011;64992;51.698;-0.292;2024-02-16T09:28:21;37.88;;;34.15;;
22015;SDS011;64992;51.698;-0.292;2024-02-16T09:30:47;37.33;;;33.22;;
22015;SDS011;64992;51.698;-0.292;2024-02-16T09:33:13;37.30;;;33.28;;
22015;SDS011;64992;51.698;-0.292;2024-02-16T09:35:39;33.03;;;29.88;;
22015;SDS011;64992;51.698;-0.292;2024-02-16T09:38:05;34.10;;;30.88;;
22015;SDS011;64992;51.698;-0.292;2024-02-16T09:40:31;38.22;;;31.88;;
22015;SDS011;64992;51.698;-0.292;2024-02-16T09:42:58;34.25;;;30.92;;
22015;SDS011;64992;51.698;-0.292;2024-02-16T09:45:24;35.88;;;33.13;;
22015;SDS011;64992;51.698;-0.292;2024-02-16T09:47:51;37.97;;;31.67;;
22015;SDS011;64992;51.698;-0.292;2024-02-16T09:50:18;36.05;;;32.33;;
22015;SDS011;64992;51.698;-0.292;2024-02-16T09:52:46;31.88;;;28.75;;
22015;SDS011;64992;51.698;-0.292;2024-02-16T09:55:13;37.53;;;30.15;;
22015;SDS011;64992;51.698;-0.292;2024-02-16T09:57:39;34.03;;;30.77;;
22015;SDS011;64992;51.698;-0.292;2024-02-16T10:00:05;36.72;;;32.47;;
22015;SDS011;64992;51.698;-0.292;2024-02-16T10:05:17;32.75;;;30.25;;
22015;SDS011;64992;51.698;-0.292;2024-02-16T10:07:43;31.55;;;28.38;;
22015;SDS011;64992;51.698;-0.292;2024-02-16T10:10:26;31.25;;;28.40;;
22015;SDS011;64992;51.698;-0.292;2024-02-16T10:13:03;37.47;;;34.35;;
22015;SDS011;64992;51.698;-0.292;2024-02-16T10:15:29;33.63;;;27.85;;
22015;SDS011;64992;51.698;-0.292;2024-02-16T10:17:59;33.20;;;29.88;;
22015;SDS011;64992;51.698;-0.292;2024-02-16T10:20:25;35.13;;;31.50;;
22015;SDS011;64992;51.698;-0.292;2024-02-16T10:23:04;36.35;;;32.97;;
22015;SDS011;64992;51.698;-0.292;2024-02-16T10:25:31;39.55;;;36.55;;
22015;SDS011;64992;51.698;-0.292;2024-02-16T10:27:57;35.15;;;32.08;;
22015;SDS011;64992;51.698;-0.292;2024-02-16T10:30:23;33.50;;;30.33;;
22015;SDS011;64992;51.698;-0.292;2024-02-16T10:32:52;36.08;;;29.17;;
22015;SDS011;64992;51.698;-0.292;2024-02-16T10:35:18;33.78;;;30.48;;
22015;SDS011;64992;51.698;-0.292;2024-02-16T10:37:45;56.40;;;51.88;;
22015;SDS011;64992;51.698;-0.292;2024-02-16T10:40:11;31.77;;;29.23;;
22015;SDS011;64992;51.698;-0.292;2024-02-16T10:42:38;31.27;;;28.48;;
22015;SDS011;64992;51.698;-0.292;2024-02-16T10:45:05;24.02;;;22.33;;
22015;SDS011;64992;51.698;-0.292;2024-02-16T10:47:31;26.67;;;24.20;;
22015;SDS011;64992;51.698;-0.292;2024-02-16T10:49:57;24.10;;;22.13;;
22015;SDS011;64992;51.698;-0.292;2024-02-16T10:52:23;26.35;;;23.80;;
22015;SDS011;64992;51.698;-0.292;2024-02-16T10:54:50;24.17;;;21.10;;
22015;SDS011;64992;51.698;-0.292;2024-02-16T10:57:16;23.90;;;21.13;;
22015;SDS011;64992;51.698;-0.292;2024-02-16T10:59:43;23.75;;;21.42;;
22015;SDS011;64992;51.698;-0.292;2024-02-16T11:02:10;22.60;;;20.58;;
22015;SDS011;64992;51.698;-0.292;2024-02-16T11:04:37;25.38;;;23.33;;
22015;SDS011;64992;51.698;-0.292;2024-02-16T11:07:15;22.70;;;20.67;;
22015;SDS011;64992;51.698;-0.292;2024-02-16T11:09:41;22.15;;;20.05;;
22015;SDS011;64992;51.698;-0.292;2024-02-16T11:12:08;24.70;;;23.00;;
22015;SDS011;64992;51.698;-0.292;2024-02-16T11:14:38;20.63;;;18.60;;
22015;SDS011;64992;51.698;-0.292;2024-02-16T11:17:08;23.33;;;21.48;;
22015;SDS011;64992;51.698;-0.292;2024-02-16T11:19:35;21.00;;;19.08;;
22015;SDS011;64992;51.698;-0.292;2024-02-16T11:22:04;21.50;;;19.10;;
22015;SDS011;64992;51.698;-0.292;2024-02-16T11:24:37;21.88;;;20.20;;
22015;SDS011;64992;51.698;-0.292;2024-02-16T11:27:04;20.10;;;18.27;;
22015;SDS011;64992;51.698;-0.292;2024-02-16T11:29:34;22.55;;;20.65;;
22015;SDS011;64992;51.698;-0.292;2024-02-16T11:32:01;25.13;;;23.13;;
22015;SDS011;64992;51.698;-0.292;2024-02-16T11:34:27;27.50;;;25.58;;
22015;SDS011;64992;51.698;-0.292;2024-02-16T11:36:57;24.90;;;23.50;;
22015;SDS011;64992;51.698;-0.292;2024-02-16T11:39:23;27.60;;;26.02;;
22015;SDS011;64992;51.698;-0.292;2024-02-16T11:42:09;28.52;;;26.77;;
22015;SDS011;64992;51.698;-0.292;2024-02-16T11:44:36;26.85;;;25.02;;
22015;SDS011;64992;51.698;-0.292;2024-02-16T11:47:04;28.10;;;26.38;;
22015;SDS011;64992;51.698;-0.292;2024-02-16T11:49:33;24.20;;;22.35;;
22015;SDS011;64992;51.698;-0.292;2024-02-16T11:52:00;28.85;;;26.73;;
22015;SDS011;64992;51.698;-0.292;2024-02-16T11:54:26;29.17;;;27.35;;
22015;SDS011;64992;51.698;-0.292;2024-02-16T11:56:52;27.15;;;25.08;;
22015;SDS011;64992;51.698;-0.292;2024-02-16T11:59:18;23.70;;;21.95;;
22015;SDS011;64992;51.698;-0.292;2024-02-16T12:02:03;30.70;;;28.70;;
22015;SDS011;64992;51.698;-0.292;2024-02-16T12:04:29;34.40;;;32.03;;
22015;SDS011;64992;51.698;-0.292;2024-02-16T12:06:56;32.65;;;30.55;;
22015;SDS011;64992;51.698;-0.292;2024-02-16T12:09:22;33.78;;;31.90;;
22015;SDS011;64992;51.698;-0.292;2024-02-16T12:11:50;38.22;;;36.10;;
22015;SDS011;64992;51.698;-0.292;2024-02-16T12:14:16;35.72;;;33.53;;
22015;SDS011;64992;51.698;-0.292;2024-02-16T12:16:42;36.83;;;34.60;;
22015;SDS011;64992;51.698;-0.292;2024-02-16T12:19:08;37.55;;;35.55;;
22015;SDS011;64992;51.698;-0.292;2024-02-16T12:21:36;33.15;;;31.08;;
22015;SDS011;64992;51.698;-0.292;2024-02-16T12:24:03;37.60;;;35.50;;
22015;SDS011;64992;51.698;-0.292;2024-02-16T12:26:30;27.13;;;25.20;;
22015;SDS011;64992;51.698;-0.292;2024-02-16T12:28:56;33.42;;;31.63;;
22015;SDS011;64992;51.698;-0.292;2024-02-16T12:31:22;28.08;;;26.27;;
22015;SDS011;64992;51.698;-0.292;2024-02-16T12:33:48;32.67;;;30.70;;
22015;SDS011;64992;51.698;-0.292;2024-02-16T12:36:14;29.40;;;27.60;;
22015;SDS011;64992;51.698;-0.292;2024-02-16T12:38:40;28.52;;;26.83;;
22015;SDS011;64992;51.698;-0.292;2024-02-16T12:41:06;35.17;;;33.30;;
22015;SDS011;64992;51.698;-0.292;2024-02-16T12:43:33;44.83;;;42.40;;
22015;SDS011;64992;51.698;-0.292;2024-02-16T12:45:59;44.70;;;42.50;;
22015;SDS011;64992;51.698;-0.292;2024-02-16T12:48:27;43.83;;;41.25;;
22015;SDS011;64992;51.698;-0.292;2024-02-16T12:50:53;64.57;;;61.25;;
22015;SDS011;64992;51.698;-0.292;2024-02-16T12:53:19;39.35;;;37.42;;
22015;SDS011;64992;51.698;-0.292;2024-02-16T12:55:49;49.10;;;46.72;;
22015;SDS011;64992;51.698;-0.292;2024-02-16T12:58:15;33.63;;;31.60;;
22015;SDS011;64992;51.698;-0.292;2024-02-16T13:00:41;43.85;;;41.67;;
22015;SDS011;64992;51.698;-0.292;2024-02-16T13:03:07;42.78;;;40.50;;
22015;SDS011;64992;51.698;-0.292;2024-02-16T13:05:33;49.10;;;46.72;;
22015;SDS011;64992;51.698;-0.292;2024-02-16T13:08:00;44.20;;;42.00;;
22015;SDS011;64992;51.698;-0.292;2024-02-16T13:10:26;41.72;;;39.60;;
22015;SDS011;64992;51.698;-0.292;2024-02-16T13:12:52;45.40;;;43.10;;
22015;SDS011;64992;51.698;-0.292;2024-02-16T13:15:19;45.33;;;43.03;;
22015;SDS011;64992;51.698;-0.292;2024-02-16T13:17:45;42.58;;;40.15;;
22015;SDS011;64992;51.698;-0.292;2024-02-16T13:20:11;43.03;;;40.53;;
22015;SDS011;64992;51.698;-0.292;2024-02-16T13:22:37;43.92;;;41.72;;
22015;SDS011;64992;51.698;-0.292;2024-02-16T13:25:06;43.50;;;41.47;;
22015;SDS011;64992;51.698;-0.292;2024-02-16T13:27:32;45.17;;;42.88;;
22015;SDS011;64992;51.698;-0.292;2024-02-16T13:30:02;46.05;;;43.67;;
22015;SDS011;64992;51.698;-0.292;2024-02-16T13:32:30;40.95;;;38.50;;
22015;SDS011;64992;51.698;-0.292;2024-02-16T13:34:57;43.35;;;41.05;;
22015;SDS011;64992;51.698;-0.292;2024-02-16T13:37:24;46.53;;;44.03;;
22015;SDS011;64992;51.698;-0.292;2024-02-16T13:39:50;46.97;;;44.35;;
22015;SDS011;64992;51.698;-0.292;2024-02-16T13:42:16;52.90;;;50.30;;
22015;SDS011;64992;51.698;-0.292;2024-02-16T13:44:42;51.70;;;48.97;;
22015;SDS011;64992;51.698;-0.292;2024-02-16T13:47:08;46.70;;;44.38;;
22015;SDS011;64992;51.698;-0.292;2024-02-16T13:49:34;55.72;;;52.33;;
22015;SDS011;64992;51.698;-0.292;2024-02-16T13:52:00;51.67;;;49.08;;
22015;SDS011;64992;51.698;-0.292;2024-02-16T13:54:26;56.65;;;53.58;;
22015;SDS011;64992;51.698;-0.292;2024-02-16T13:56:52;48.85;;;46.38;;
22015;SDS011;64992;51.698;-0.292;2024-02-16T13:59:19;46.42;;;43.88;;
22015;SDS011;64992;51.698;-0.292;2024-02-16T14:01:45;46.30;;;43.83;;
22015;SDS011;64992;51.698;-0.292;2024-02-16T14:04:11;52.80;;;50.00;;
22015;SDS011;64992;51.698;-0.292;2024-02-16T14:06:38;42.03;;;39.65;;
22015;SDS011;64992;51.698;-0.292;2024-02-16T14:09:04;48.47;;;46.08;;